createdAt,value
2018-06-05T00:01:25.588Z,11.20
2018-06-05T00:03:54.854Z,20.77
2018-06-05T00:06:24.087Z,9.63
2018-06-05T00:08:53.344Z,219.73
2018-06-05T00:11:23.032Z,15.93
2018-06-05T00:13:52.279Z,14.93
2018-06-05T00:16:21.512Z,16.57
2018-06-05T00:18:50.754Z,19.80
2018-06-05T00:21:20.089Z,26.47
2018-06-05T00:23:49.373Z,47.90
2018-06-05T00:26:18.610Z,16.13
2018-06-05T00:28:47.908Z,32.47
2018-06-05T00:31:17.183Z,17.40
2018-06-05T00:33:46.424Z,15.90
2018-06-05T00:36:15.719Z,23.97
2018-06-05T00:38:45.035Z,16.33
2018-06-05T00:41:14.388Z,26.93
2018-06-05T00:43:44.062Z,24.77
2018-06-05T00:46:13.324Z,26.47
2018-06-05T00:48:42.568Z,19.80
2018-06-05T00:51:22.876Z,20.47
2018-06-05T00:53:52.117Z,29.73
2018-06-05T00:56:21.347Z,25.60
2018-06-05T00:58:50.678Z,23.37
2018-06-05T01:01:19.952Z,21.80
2018-06-05T01:03:49.188Z,23.50
2018-06-05T01:06:17.911Z,24.63
2018-06-05T01:08:47.161Z,26.20
2018-06-05T01:11:16.836Z,23.03
2018-06-05T01:13:46.368Z,30.57
2018-06-05T01:16:15.616Z,24.30
2018-06-05T01:18:44.849Z,29.40
2018-06-05T01:21:14.141Z,24.93
2018-06-05T01:23:43.376Z,18.37
2018-06-05T01:26:12.612Z,27.70
2018-06-05T01:28:41.856Z,34.93
2018-06-05T01:31:11.216Z,25.13
2018-06-05T01:33:40.472Z,34.97
2018-06-05T01:36:09.749Z,32.87
2018-06-05T01:38:39.754Z,32.53
2018-06-05T01:41:09.027Z,29.97
2018-06-05T01:43:38.283Z,32.93
2018-06-05T01:46:07.830Z,29.43
2018-06-05T01:48:37.063Z,28.87
2018-06-05T01:51:06.368Z,29.33
2018-06-05T01:53:35.602Z,26.03
2018-06-05T01:56:04.872Z,23.10
2018-06-05T01:58:34.159Z,26.37
2018-06-05T02:01:03.495Z,30.97
2018-06-05T02:03:32.845Z,29.10
2018-06-05T02:06:02.092Z,23.47
2018-06-05T02:08:31.341Z,27.07
2018-06-05T02:11:00.708Z,27.43
2018-06-05T02:13:29.961Z,27.27
2018-06-05T02:15:59.198Z,24.43
2018-06-05T02:18:28.604Z,24.13
2018-06-05T02:20:57.977Z,22.57
2018-06-05T02:23:27.199Z,22.90
2018-06-05T02:25:56.462Z,20.27
2018-06-05T02:28:25.693Z,19.60
2018-06-05T02:30:54.964Z,19.17
2018-06-05T02:33:24.200Z,21.63
2018-06-05T02:35:52.964Z,21.03
2018-06-05T02:38:22.186Z,18.83
2018-06-05T02:40:54.134Z,16.37
2018-06-05T02:43:23.409Z,18.53
2018-06-05T02:45:52.704Z,20.23
2018-06-05T02:48:21.912Z,16.07
2018-06-05T02:50:51.599Z,18.97
2018-06-05T02:53:20.830Z,18.00
2018-06-05T02:55:50.088Z,19.30
2018-06-05T02:58:19.381Z,21.33
2018-06-05T03:00:48.724Z,16.90
2018-06-05T03:03:17.952Z,33.60
2018-06-05T03:05:47.188Z,83.00
2018-06-05T03:08:16.488Z,31.77
2018-06-05T03:10:45.824Z,1650.00
2018-06-05T03:13:15.060Z,1386.33
2018-06-05T03:15:43.826Z,598.90
2018-06-05T03:18:13.075Z,714.70
2018-06-05T03:20:42.408Z,69.33
2018-06-05T03:23:11.664Z,107.70
2018-06-05T03:25:40.900Z,174.43
2018-06-05T03:28:10.118Z,60.77
2018-06-05T03:30:39.408Z,89.30
2018-06-05T03:33:08.632Z,44.37
2018-06-05T03:35:37.874Z,31.20
2018-06-05T03:38:07.143Z,30.13
2018-06-05T03:40:36.507Z,28.43
2018-06-05T03:43:06.107Z,36.77
2018-06-05T03:45:35.348Z,27.27
2018-06-05T03:48:04.640Z,32.13
2018-06-05T03:50:33.905Z,82.93
2018-06-05T03:53:03.133Z,34.17
2018-06-05T03:55:32.420Z,34.40
2018-06-05T03:58:01.644Z,32.03
2018-06-05T04:00:31.011Z,41.90
2018-06-05T04:03:00.232Z,32.33
2018-06-05T04:05:29.484Z,30.37
2018-06-05T04:07:58.735Z,34.20
2018-06-05T04:10:28.931Z,33.80
2018-06-05T04:12:58.221Z,31.80
2018-06-05T04:15:27.500Z,25.77
2018-06-05T04:17:56.760Z,25.60
2018-06-05T04:20:26.188Z,39.00
2018-06-05T04:22:55.432Z,46.20
2018-06-05T04:25:24.704Z,29.57
2018-06-05T04:27:53.971Z,40.77
2018-06-05T04:30:23.332Z,32.93
2018-06-05T04:32:52.636Z,28.83
2018-06-05T04:35:21.931Z,31.47
2018-06-05T04:37:51.231Z,30.63
2018-06-05T04:40:20.560Z,33.50
2018-06-05T04:42:49.842Z,28.10
2018-06-05T04:45:19.155Z,29.20
2018-06-05T04:47:48.491Z,28.80
2018-06-05T04:50:17.234Z,28.60
2018-06-05T04:52:46.594Z,33.93
2018-06-05T04:55:15.861Z,561.53
2018-06-05T04:57:45.128Z,112.30
2018-06-05T05:00:15.864Z,61.77
2018-06-05T05:02:45.148Z,455.10
2018-06-05T05:05:14.461Z,1257.13
2018-06-05T05:07:43.732Z,964.73
2018-06-05T05:10:13.150Z,81.57
2018-06-05T05:12:42.469Z,175.80
2018-06-05T05:15:11.772Z,455.07
2018-06-05T05:17:41.171Z,147.33
2018-06-05T05:20:10.493Z,53.27
2018-06-05T05:22:39.787Z,56.03
2018-06-05T05:25:09.101Z,58.00
2018-06-05T05:27:38.417Z,66.77
2018-06-05T05:30:07.867Z,72.47
2018-06-05T05:32:37.274Z,72.83
2018-06-05T05:35:06.752Z,48.33
2018-06-05T05:37:36.077Z,51.00
2018-06-05T05:40:05.487Z,54.77
2018-06-05T05:42:34.785Z,40.80
2018-06-05T05:45:04.217Z,40.73
2018-06-05T05:47:33.549Z,36.93
2018-06-05T05:50:03.053Z,36.60
2018-06-05T05:52:32.531Z,41.77
2018-06-05T05:55:01.899Z,36.50
2018-06-05T05:57:31.223Z,36.90
2018-06-05T06:00:00.544Z,31.40
2018-06-05T06:02:29.868Z,31.73
2018-06-05T06:04:59.217Z,28.23
2018-06-05T06:07:28.648Z,28.03
2018-06-05T06:09:58.015Z,30.70
2018-06-05T06:12:27.357Z,29.67
2018-06-05T06:14:56.733Z,27.67
2018-06-05T06:17:26.069Z,26.13
2018-06-05T06:19:55.395Z,20.93
2018-06-05T06:22:24.829Z,18.80
2018-06-05T06:24:54.217Z,18.70
2018-06-05T06:27:23.545Z,20.70
2018-06-05T06:29:52.975Z,18.23
2018-06-05T06:32:22.301Z,19.23
2018-06-05T06:34:51.624Z,16.83
2018-06-05T06:37:21.324Z,16.30
2018-06-05T06:39:50.686Z,13.93
2018-06-05T06:42:19.997Z,14.13
2018-06-05T06:44:48.771Z,13.90
2018-06-05T06:47:18.056Z,17.13
2018-06-05T06:49:47.328Z,16.13
2018-06-05T06:52:16.661Z,15.07
2018-06-05T06:54:46.022Z,13.70
2018-06-05T06:57:15.383Z,13.33
2018-06-05T06:59:44.696Z,16.40
2018-06-05T07:02:14.155Z,12.50
2018-06-05T07:04:43.480Z,13.97
2018-06-05T07:07:12.274Z,15.67
2018-06-05T07:09:41.789Z,15.13
2018-06-05T07:12:11.231Z,11.00
2018-06-05T07:14:40.556Z,15.37
2018-06-05T07:17:09.886Z,14.27
2018-06-05T07:19:39.403Z,13.07
2018-06-05T07:22:08.863Z,14.27
2018-06-05T07:24:38.243Z,13.93
2018-06-05T07:27:07.680Z,11.90
2018-06-05T07:29:37.036Z,14.20
2018-06-05T07:32:06.485Z,15.23
2018-06-05T07:34:35.868Z,13.17
2018-06-05T07:37:05.203Z,12.63
2018-06-05T07:39:34.587Z,11.90
2018-06-05T07:42:04.014Z,12.43
2018-06-05T07:44:33.324Z,13.07
2018-06-05T07:47:02.019Z,8.93
2018-06-05T07:49:31.393Z,11.07
2018-06-05T07:52:00.814Z,11.97
2018-06-05T07:54:30.112Z,9.43
2018-06-05T07:56:59.634Z,15.37
2018-06-05T07:59:29.093Z,8.00
2018-06-05T08:01:58.513Z,12.40
2018-06-05T08:04:27.388Z,7.77
2018-06-05T08:06:56.704Z,6.10
2018-06-05T08:09:26.031Z,7.20
2018-06-05T08:11:55.482Z,11.43
2018-06-05T08:14:25.097Z,6.77
2018-06-05T08:16:54.416Z,7.60
2018-06-05T08:19:23.204Z,10.77
2018-06-05T08:21:52.625Z,8.10
2018-06-05T08:24:22.039Z,9.07
2018-06-05T08:26:53.226Z,10.57
2018-06-05T08:29:23.141Z,8.47
2018-06-05T08:31:52.604Z,7.10
2018-06-05T08:34:22.009Z,13.67
2018-06-05T08:36:51.372Z,8.13
2018-06-05T08:39:20.685Z,9.27
2018-06-05T08:41:50.107Z,8.87
2018-06-05T08:44:19.586Z,9.33
2018-06-05T08:46:48.915Z,6.30
2018-06-05T08:49:18.474Z,9.43
2018-06-05T08:51:47.906Z,8.83
2018-06-05T08:54:17.319Z,6.33
2018-06-05T08:56:46.676Z,6.47
2018-06-05T08:59:16.046Z,7.03
2018-06-05T09:01:45.542Z,8.73
2018-06-05T09:04:14.954Z,6.67
2018-06-05T09:06:44.457Z,9.07
2018-06-05T09:09:14.119Z,8.20
2018-06-05T09:11:43.584Z,9.67
2018-06-05T09:14:12.921Z,9.33
2018-06-05T09:16:42.534Z,11.70
2018-06-05T09:19:11.961Z,8.77
2018-06-05T09:21:41.504Z,9.27
2018-06-05T09:24:11.401Z,7.40
2018-06-05T09:26:40.667Z,7.07
2018-06-05T09:29:09.999Z,7.20
2018-06-05T09:31:39.571Z,7.73
2018-06-05T09:34:09.067Z,6.70
2018-06-05T09:36:38.550Z,9.10
2018-06-05T09:39:09.416Z,9.67
2018-06-05T09:41:38.959Z,6.27
2018-06-05T09:44:08.291Z,6.83
2018-06-05T09:46:37.647Z,7.73
2018-06-05T09:49:07.030Z,6.77
2018-06-05T09:51:36.756Z,7.13
2018-06-05T09:54:06.100Z,6.07
2018-06-05T09:56:35.525Z,5.90
2018-06-05T09:59:04.896Z,6.27
2018-06-05T10:01:34.336Z,8.40
2018-06-05T10:04:03.746Z,9.93
2018-06-05T10:06:33.152Z,9.93
2018-06-05T10:09:02.704Z,4.73
2018-06-05T10:11:32.103Z,5.20
2018-06-05T10:14:01.484Z,6.77
2018-06-05T10:16:30.860Z,6.10
2018-06-05T10:19:00.364Z,6.63
2018-06-05T10:21:29.949Z,6.17
2018-06-05T10:23:59.369Z,4.93
2018-06-05T10:26:28.958Z,6.47
2018-06-05T10:28:59.434Z,9.17
2018-06-05T10:31:29.670Z,5.27
2018-06-05T10:33:59.276Z,4.63
2018-06-05T10:36:28.761Z,6.93
2018-06-05T10:38:58.045Z,6.17
2018-06-05T10:41:27.522Z,6.10
2018-06-05T10:43:56.925Z,6.50
2018-06-05T10:46:29.825Z,6.28
2018-06-05T10:48:59.204Z,4.58
2018-06-05T10:51:28.860Z,8.08
2018-06-05T10:53:58.340Z,6.10
2018-06-05T10:56:28.544Z,5.80
2018-06-05T10:58:58.041Z,5.70
2018-06-05T11:01:27.514Z,5.47
2018-06-05T11:03:56.955Z,3.87
2018-06-05T11:06:26.391Z,5.50
2018-06-05T11:08:55.826Z,5.50
2018-06-05T11:11:26.330Z,4.53
2018-06-05T11:13:55.740Z,6.70
2018-06-05T11:16:25.164Z,2.83
2018-06-05T11:18:54.611Z,5.60
2018-06-05T11:21:24.104Z,4.97
2018-06-05T11:23:53.440Z,6.73
2018-06-05T11:26:22.785Z,6.33
2018-06-05T11:28:52.446Z,8.93
2018-06-05T11:31:21.788Z,3.23
2018-06-05T11:33:51.130Z,4.87
2018-06-05T11:36:20.532Z,6.13
2018-06-05T11:38:49.980Z,5.17
2018-06-05T11:41:18.940Z,6.17
2018-06-05T11:43:48.392Z,6.03
2018-06-05T11:46:17.756Z,5.67
2018-06-05T11:48:47.105Z,4.57
2018-06-05T11:51:16.603Z,4.20
2018-06-05T11:53:45.899Z,6.40
2018-06-05T11:56:15.299Z,6.53
2018-06-05T11:58:44.572Z,6.73
2018-06-05T12:01:14.112Z,4.75
2018-06-05T12:03:43.465Z,5.25
2018-06-05T12:06:12.812Z,5.37
2018-06-05T12:08:42.120Z,6.00
2018-06-05T12:11:12.544Z,5.47
2018-06-05T12:13:41.903Z,5.97
2018-06-05T12:16:11.247Z,6.67
2018-06-05T12:18:40.578Z,4.63
2018-06-05T12:21:09.955Z,7.50
2018-06-05T12:23:39.332Z,4.57
2018-06-05T12:26:08.676Z,4.83
2018-06-05T12:28:37.974Z,8.50
2018-06-05T12:31:07.418Z,6.17
2018-06-05T12:33:36.730Z,5.53
2018-06-05T12:36:06.217Z,8.23
2018-06-05T12:38:35.696Z,8.93
2018-06-05T12:41:05.137Z,8.30
2018-06-05T12:43:34.005Z,6.27
2018-06-05T12:46:03.394Z,7.00
2018-06-05T12:48:33.163Z,8.27
2018-06-05T12:51:02.638Z,6.60
2018-06-05T12:53:32.031Z,8.67
2018-06-05T12:56:01.412Z,5.83
2018-06-05T12:58:30.720Z,8.87
2018-06-05T13:01:00.113Z,11.07
2018-06-05T13:03:29.544Z,8.30
2018-06-05T13:05:59.215Z,9.60
2018-06-05T13:08:28.571Z,6.67
2018-06-05T13:10:57.407Z,6.73
2018-06-05T13:13:26.713Z,5.70
2018-06-05T13:15:56.093Z,9.17
2018-06-05T13:18:25.460Z,9.20
2018-06-05T13:20:55.004Z,5.97
2018-06-05T13:23:25.656Z,5.30
2018-06-05T13:25:56.463Z,6.77
2018-06-05T13:28:26.495Z,6.83
2018-06-05T13:30:56.579Z,7.70
2018-06-05T13:33:26.461Z,6.97
2018-06-05T13:35:56.386Z,5.43
2018-06-05T13:38:26.425Z,6.40
2018-06-05T13:40:55.848Z,7.40
2018-06-05T13:43:25.716Z,8.37
2018-06-05T13:45:55.772Z,9.80
2018-06-05T13:48:25.713Z,7.07
2018-06-05T13:50:55.673Z,6.30
2018-06-05T13:53:26.100Z,9.97
2018-06-05T13:55:56.054Z,7.47
2018-06-05T13:58:26.147Z,6.77
2018-06-05T14:00:56.182Z,9.60
2018-06-05T14:03:26.182Z,8.47
2018-06-05T14:05:56.255Z,7.33
2018-06-05T14:08:26.208Z,8.70
2018-06-05T14:10:56.637Z,7.40
2018-06-05T14:13:26.695Z,5.87
2018-06-05T14:15:56.863Z,6.07
2018-06-05T14:18:26.889Z,9.77
2018-06-05T14:20:56.876Z,6.63
2018-06-05T14:23:26.786Z,6.50
2018-06-05T14:25:56.797Z,6.40
2018-06-05T14:28:26.605Z,9.00
2018-06-05T14:30:56.731Z,11.53
2018-06-05T14:33:27.083Z,11.03
2018-06-05T14:35:57.456Z,9.50
2018-06-05T14:38:27.411Z,8.57
2018-06-05T14:40:58.264Z,6.60
2018-06-05T14:43:28.278Z,6.60
2018-06-05T14:45:59.255Z,6.60
2018-06-05T14:48:29.512Z,9.07
2018-06-05T14:50:59.568Z,7.23
2018-06-05T14:53:29.585Z,10.63
2018-06-05T14:55:59.510Z,11.00
2018-06-05T14:58:30.572Z,7.60
2018-06-05T15:01:01.375Z,10.30
2018-06-05T15:03:32.065Z,10.73
2018-06-05T15:06:02.332Z,8.43
2018-06-05T15:08:32.462Z,8.03
2018-06-05T15:11:03.050Z,9.13
2018-06-05T15:13:32.342Z,7.80
2018-06-05T15:16:02.428Z,8.53
2018-06-05T15:18:32.582Z,8.37
2018-06-05T15:21:02.801Z,10.43
2018-06-05T15:23:33.177Z,8.13
2018-06-05T15:26:03.160Z,7.03
2018-06-05T15:28:33.421Z,7.03
2018-06-05T15:31:03.369Z,15.73
2018-06-05T15:33:33.576Z,25.60
2018-06-05T15:36:03.600Z,13.07
2018-06-05T15:38:33.468Z,13.87
2018-06-05T15:41:03.913Z,8.15
2018-06-05T15:43:35.740Z,5.75
2018-06-05T15:46:05.685Z,7.78
2018-06-05T15:48:35.846Z,8.38
2018-06-05T15:51:05.908Z,5.90
2018-06-05T15:53:35.976Z,7.17
2018-06-05T15:56:06.021Z,5.87
2018-06-05T15:58:36.042Z,8.13
2018-06-05T16:01:06.074Z,8.00
2018-06-05T16:03:35.974Z,6.23
2018-06-05T16:06:06.476Z,7.43
2018-06-05T16:08:36.519Z,6.70
2018-06-05T16:11:06.476Z,4.93
2018-06-05T16:13:36.420Z,8.23
2018-06-05T16:16:06.356Z,6.70
2018-06-05T16:18:36.390Z,7.27
2018-06-05T16:21:07.192Z,7.17
2018-06-05T16:23:37.205Z,7.10
2018-06-05T16:26:07.043Z,5.10
2018-06-05T16:28:37.214Z,6.37
2018-06-05T16:31:07.571Z,7.40
2018-06-05T16:33:37.520Z,6.83
2018-06-05T16:36:07.444Z,6.87
2018-06-05T16:38:37.389Z,6.03
2018-06-05T16:41:06.770Z,7.93
2018-06-05T16:43:36.960Z,7.27
2018-06-05T16:46:10.695Z,6.40
2018-06-05T16:48:40.681Z,14.03
2018-06-05T16:51:11.017Z,6.73
2018-06-05T16:53:40.970Z,8.40
2018-06-05T16:56:11.280Z,8.63
2018-06-05T16:58:43.130Z,7.13
2018-06-05T17:01:15.978Z,6.07
2018-06-05T17:03:46.809Z,8.70
2018-06-05T17:06:18.228Z,7.10
2018-06-05T17:08:48.106Z,8.10
2018-06-05T17:11:18.074Z,6.60
2018-06-05T17:13:48.443Z,10.63
2018-06-05T17:16:18.223Z,6.43
2018-06-05T17:18:48.043Z,5.87
2018-06-05T17:21:17.924Z,8.27
2018-06-05T17:23:47.779Z,5.13
2018-06-05T17:26:17.550Z,6.27
2018-06-05T17:28:46.611Z,6.17
2018-06-05T17:31:16.756Z,4.60
2018-06-05T17:33:46.791Z,4.70
2018-06-05T17:36:16.649Z,6.40
2018-06-05T17:38:46.555Z,6.03
2018-06-05T17:41:16.581Z,6.33
2018-06-05T17:43:47.950Z,8.23
2018-06-05T17:46:18.255Z,6.57
2018-06-05T17:48:48.536Z,4.53
2018-06-05T17:51:18.399Z,9.60
2018-06-05T17:53:48.217Z,5.23
2018-06-05T17:56:18.556Z,5.33
2018-06-05T17:58:48.472Z,6.70
2018-06-05T18:01:18.465Z,6.20
2018-06-05T18:03:48.637Z,4.37
2018-06-05T18:06:18.602Z,4.60
2018-06-05T18:08:48.508Z,6.40
2018-06-05T18:11:18.349Z,6.03
2018-06-05T18:13:48.096Z,9.03
2018-06-05T18:16:17.913Z,5.43
2018-06-05T18:18:47.783Z,7.63
2018-06-05T18:21:17.671Z,4.30
2018-06-05T18:23:47.705Z,6.80
2018-06-05T18:26:17.748Z,7.00
2018-06-05T18:28:47.793Z,4.77
2018-06-05T18:31:17.469Z,6.23
2018-06-05T18:33:46.645Z,6.27
2018-06-05T18:36:16.533Z,5.17
2018-06-05T18:38:46.606Z,5.83
2018-06-05T18:41:16.692Z,7.27
2018-06-05T18:43:46.705Z,6.97
2018-06-05T18:46:17.135Z,5.13
2018-06-05T18:48:47.300Z,5.13
2018-06-05T18:51:18.535Z,4.20
2018-06-05T18:53:48.418Z,7.60
2018-06-05T18:56:18.390Z,7.33
2018-06-05T18:58:48.850Z,5.90
2018-06-05T19:01:21.288Z,6.13
2018-06-05T19:03:51.249Z,5.77
2018-06-05T19:06:21.545Z,10.17
2018-06-05T19:08:52.519Z,2.53
2018-06-05T19:11:22.313Z,3.73
2018-06-05T19:13:52.280Z,5.03
2018-06-05T19:16:22.850Z,5.20
2018-06-05T19:18:53.181Z,4.93
2018-06-05T19:21:23.544Z,7.27
2018-06-05T19:23:53.454Z,4.93
2018-06-05T19:26:23.304Z,4.83
2018-06-05T19:28:52.603Z,5.80
2018-06-05T19:31:21.975Z,5.57
2018-06-05T19:33:51.277Z,3.03
2018-06-05T19:36:20.581Z,5.93
2018-06-05T19:38:50.023Z,4.80
2018-06-05T19:41:19.424Z,4.13
2018-06-05T19:43:48.660Z,6.70
2018-06-05T19:46:18.064Z,6.40
2018-06-05T19:48:47.344Z,4.17
2018-06-05T19:51:16.652Z,5.47
2018-06-05T19:53:46.021Z,2.63
2018-06-05T19:56:15.276Z,5.40
2018-06-05T19:58:44.580Z,4.87
2018-06-05T20:01:13.952Z,4.00
2018-06-05T20:03:43.185Z,5.53
2018-06-05T20:06:12.037Z,5.20
2018-06-05T20:08:41.428Z,3.40
2018-06-05T20:11:10.745Z,3.43
2018-06-05T20:13:40.014Z,4.70
2018-06-05T20:16:09.294Z,5.83
2018-06-05T20:18:38.608Z,2.50
2018-06-05T20:21:07.964Z,6.47
2018-06-05T20:23:37.249Z,4.67
2018-06-05T20:26:06.647Z,2.90
2018-06-05T20:28:35.936Z,4.80
2018-06-05T20:31:05.247Z,2.70
2018-06-05T20:33:34.468Z,6.10
2018-06-05T20:36:03.815Z,4.63
2018-06-05T20:38:33.073Z,5.17
2018-06-05T20:41:02.347Z,5.10
2018-06-05T20:43:31.576Z,5.67
2018-06-05T20:46:00.266Z,4.83
2018-06-05T20:48:29.495Z,3.30
2018-06-05T20:50:58.821Z,3.30
2018-06-05T20:53:28.084Z,3.43
2018-06-05T20:55:57.292Z,3.67
2018-06-05T20:58:26.672Z,8.43
2018-06-05T21:00:56.029Z,5.53
2018-06-05T21:03:25.500Z,8.30
2018-06-05T21:05:54.732Z,4.20
2018-06-05T21:08:23.940Z,7.30
2018-06-05T21:10:54.249Z,3.80
2018-06-05T21:13:23.480Z,5.90
2018-06-05T21:15:52.728Z,5.27
2018-06-05T21:18:22.008Z,3.90
2018-06-05T21:20:51.355Z,6.80
2018-06-05T21:23:20.648Z,7.90
2018-06-05T21:25:49.856Z,5.90
2018-06-05T21:28:19.056Z,4.03
2018-06-05T21:30:48.728Z,4.60
2018-06-05T21:33:18.036Z,6.87
2018-06-05T21:35:53.841Z,4.27
2018-06-05T21:38:23.080Z,5.70
2018-06-05T21:40:52.432Z,4.20
2018-06-05T21:43:21.684Z,7.13
2018-06-05T21:45:50.913Z,3.77
2018-06-05T21:48:20.139Z,7.23
2018-06-05T21:50:49.412Z,6.47
2018-06-05T21:53:18.644Z,11.83
2018-06-05T21:55:47.900Z,4.30
2018-06-05T21:58:17.112Z,3.57
2018-06-05T22:00:46.411Z,4.87
2018-06-05T22:03:15.744Z,3.57
2018-06-05T22:05:44.432Z,3.60
2018-06-05T22:08:13.692Z,3.70
2018-06-05T22:10:42.992Z,7.77
2018-06-05T22:13:12.268Z,5.90
2018-06-05T22:15:41.521Z,5.60
2018-06-05T22:18:10.785Z,7.73
2018-06-05T22:20:40.089Z,4.33
2018-06-05T22:23:09.316Z,4.80
2018-06-05T22:25:38.556Z,4.53
2018-06-05T22:28:07.792Z,4.53
2018-06-05T22:30:37.078Z,4.27
2018-06-05T22:33:06.316Z,6.97
2018-06-05T22:35:35.904Z,7.27
2018-06-05T22:38:05.127Z,5.10
2018-06-05T22:40:34.914Z,5.97
2018-06-05T22:43:04.140Z,5.57
2018-06-05T22:45:33.376Z,9.83
2018-06-05T22:48:02.604Z,5.60
2018-06-05T22:50:31.876Z,3.97
2018-06-05T22:53:01.099Z,6.30
2018-06-05T22:55:30.292Z,5.37
2018-06-05T22:57:59.592Z,6.60
2018-06-05T23:00:32.816Z,7.93
2018-06-05T23:03:02.122Z,5.87
2018-06-05T23:05:31.420Z,5.40
2018-06-05T23:08:01.069Z,4.83
2018-06-05T23:10:30.532Z,7.33
2018-06-05T23:12:59.842Z,4.30
2018-06-05T23:15:29.172Z,5.70
2018-06-05T23:17:58.461Z,6.10
2018-06-05T23:20:27.876Z,6.87
2018-06-05T23:22:57.181Z,9.07
2018-06-05T23:25:26.517Z,8.67
2018-06-05T23:27:55.882Z,4.10
2018-06-05T23:30:25.252Z,5.00
2018-06-05T23:32:54.549Z,5.20
2018-06-05T23:35:23.853Z,5.07
2018-06-05T23:37:53.145Z,4.27
2018-06-05T23:40:22.996Z,7.63
2018-06-05T23:42:52.396Z,4.00
2018-06-05T23:45:21.721Z,5.33
2018-06-05T23:47:51.065Z,11.40
2018-06-05T23:50:20.463Z,9.80
2018-06-05T23:52:49.776Z,8.30
2018-06-05T23:55:19.065Z,5.43
2018-06-05T23:57:48.361Z,8.33
